sensor_id;sensor_type;location;lat;lon;timestamp;P1;durP1;ratioP1;P2;durP2;ratioP2
60370;SDS011;48550;40.588;49.684;2022-11-15T00:00:48;12.85;;;5.05;;
60370;SDS011;48550;40.588;49.684;2022-11-15T00:03:15;14.23;;;5.00;;
60370;SDS011;48550;40.588;49.684;2022-11-15T00:05:42;15.68;;;5.60;;
60370;SDS011;48550;40.588;49.684;2022-11-15T00:08:08;14.25;;;5.30;;
60370;SDS011;48550;40.588;49.684;2022-11-15T00:10:34;13.10;;;5.05;;
60370;SDS011;48550;40.588;49.684;2022-11-15T00:13:03;11.38;;;4.72;;
60370;SDS011;48550;40.588;49.684;2022-11-15T00:15:30;14.48;;;5.55;;
60370;SDS011;48550;40.588;49.684;2022-11-15T00:17:56;10.05;;;5.03;;
60370;SDS011;48550;40.588;49.684;2022-11-15T00:20:22;12.05;;;4.95;;
60370;SDS011;48550;40.588;49.684;2022-11-15T00:22:47;11.88;;;5.25;;
60370;SDS011;48550;40.588;49.684;2022-11-15T00:25:13;10.55;;;4.93;;
60370;SDS011;48550;40.588;49.684;2022-11-15T00:27:39;12.93;;;4.80;;
60370;SDS011;48550;40.588;49.684;2022-11-15T00:30:05;11.45;;;5.50;;
60370;SDS011;48550;40.588;49.684;2022-11-15T00:32:31;11.35;;;5.47;;
60370;SDS011;48550;40.588;49.684;2022-11-15T00:34:57;10.93;;;5.25;;
60370;SDS011;48550;40.588;49.684;2022-11-15T00:37:23;15.93;;;5.60;;
60370;SDS011;48550;40.588;49.684;2022-11-15T00:39:49;14.65;;;5.97;;
60370;SDS011;48550;40.588;49.684;2022-11-15T00:42:14;13.50;;;5.32;;
60370;SDS011;48550;40.588;49.684;2022-11-15T00:44:40;14.65;;;5.47;;
60370;SDS011;48550;40.588;49.684;2022-11-15T00:47:06;13.07;;;5.68;;
60370;SDS011;48550;40.588;49.684;2022-11-15T00:49:32;19.35;;;6.20;;
60370;SDS011;48550;40.588;49.684;2022-11-15T00:51:57;21.77;;;6.68;;
60370;SDS011;48550;40.588;49.684;2022-11-15T00:54:23;11.73;;;5.60;;
60370;SDS011;48550;40.588;49.684;2022-11-15T00:56:49;15.10;;;5.95;;
60370;SDS011;48550;40.588;49.684;2022-11-15T00:59:15;13.43;;;5.82;;
60370;SDS011;48550;40.588;49.684;2022-11-15T01:01:40;10.10;;;5.28;;
60370;SDS011;48550;40.588;49.684;2022-11-15T01:04:06;13.45;;;5.53;;
60370;SDS011;48550;40.588;49.684;2022-11-15T01:06:32;14.57;;;6.00;;
60370;SDS011;48550;40.588;49.684;2022-11-15T01:08:58;14.70;;;5.25;;
60370;SDS011;48550;40.588;49.684;2022-11-15T01:11:23;20.80;;;6.03;;
60370;SDS011;48550;40.588;49.684;2022-11-15T01:13:49;16.40;;;6.15;;
60370;SDS011;48550;40.588;49.684;2022-11-15T01:16:16;17.48;;;6.20;;
60370;SDS011;48550;40.588;49.684;2022-11-15T01:18:44;14.60;;;6.38;;
60370;SDS011;48550;40.588;49.684;2022-11-15T01:21:11;20.00;;;5.85;;
60370;SDS011;48550;40.588;49.684;2022-11-15T01:23:42;11.52;;;5.72;;
60370;SDS011;48550;40.588;49.684;2022-11-15T01:26:09;15.45;;;6.07;;
60370;SDS011;48550;40.588;49.684;2022-11-15T01:28:38;11.98;;;5.53;;
60370;SDS011;48550;40.588;49.684;2022-11-15T01:31:13;13.85;;;5.53;;
60370;SDS011;48550;40.588;49.684;2022-11-15T01:33:41;14.18;;;6.30;;
60370;SDS011;48550;40.588;49.684;2022-11-15T01:36:08;10.40;;;5.15;;
60370;SDS011;48550;40.588;49.684;2022-11-15T01:38:46;14.85;;;5.93;;
60370;SDS011;48550;40.588;49.684;2022-11-15T01:41:19;14.88;;;5.60;;
60370;SDS011;48550;40.588;49.684;2022-11-15T01:43:54;14.07;;;6.68;;
60370;SDS011;48550;40.588;49.684;2022-11-15T01:46:27;12.20;;;6.20;;
60370;SDS011;48550;40.588;49.684;2022-11-15T01:49:04;13.73;;;6.40;;
60370;SDS011;48550;40.588;49.684;2022-11-15T01:51:38;16.77;;;6.07;;
60370;SDS011;48550;40.588;49.684;2022-11-15T01:54:06;15.32;;;5.93;;
60370;SDS011;48550;40.588;49.684;2022-11-15T01:56:45;15.52;;;5.45;;
60370;SDS011;48550;40.588;49.684;2022-11-15T01:59:21;11.00;;;6.25;;
60370;SDS011;48550;40.588;49.684;2022-11-15T02:01:48;11.98;;;5.18;;
60370;SDS011;48550;40.588;49.684;2022-11-15T02:04:21;12.82;;;5.85;;
60370;SDS011;48550;40.588;49.684;2022-11-15T02:06:57;11.98;;;4.80;;
60370;SDS011;48550;40.588;49.684;2022-11-15T02:09:23;12.98;;;5.13;;
60370;SDS011;48550;40.588;49.684;2022-11-15T02:11:49;8.18;;;5.00;;
60370;SDS011;48550;40.588;49.684;2022-11-15T02:14:17;10.90;;;4.80;;
60370;SDS011;48550;40.588;49.684;2022-11-15T02:16:51;9.60;;;4.90;;
60370;SDS011;48550;40.588;49.684;2022-11-15T02:24:57;10.05;;;4.10;;
60370;SDS011;48550;40.588;49.684;2022-11-15T02:30:45;11.57;;;4.70;;
60370;SDS011;48550;40.588;49.684;2022-11-15T02:36:08;12.88;;;4.88;;
60370;SDS011;48550;40.588;49.684;2022-11-15T02:41:30;14.02;;;4.63;;
60370;SDS011;48550;40.588;49.684;2022-11-15T02:44:16;9.18;;;4.90;;
60370;SDS011;48550;40.588;49.684;2022-11-15T02:49:35;8.70;;;4.68;;
60370;SDS011;48550;40.588;49.684;2022-11-15T02:52:02;12.18;;;4.60;;
60370;SDS011;48550;40.588;49.684;2022-11-15T02:54:29;10.73;;;4.82;;
60370;SDS011;48550;40.588;49.684;2022-11-15T02:57:07;13.07;;;5.45;;
60370;SDS011;48550;40.588;49.684;2022-11-15T02:59:52;14.55;;;4.63;;
60370;SDS011;48550;40.588;49.684;2022-11-15T03:02:32;14.70;;;5.20;;
60370;SDS011;48550;40.588;49.684;2022-11-15T03:13:05;10.57;;;4.55;;
60370;SDS011;48550;40.588;49.684;2022-11-15T03:15:56;9.70;;;4.47;;
60370;SDS011;48550;40.588;49.684;2022-11-15T03:18:30;17.15;;;5.97;;
60370;SDS011;48550;40.588;49.684;2022-11-15T03:21:00;8.32;;;4.75;;
60370;SDS011;48550;40.588;49.684;2022-11-15T03:23:30;11.82;;;5.40;;
60370;SDS011;48550;40.588;49.684;2022-11-15T03:25:58;15.10;;;5.70;;
60370;SDS011;48550;40.588;49.684;2022-11-15T03:28:32;21.98;;;5.93;;
60370;SDS011;48550;40.588;49.684;2022-11-15T03:31:02;13.82;;;5.38;;
60370;SDS011;48550;40.588;49.684;2022-11-15T03:33:52;9.70;;;5.25;;
60370;SDS011;48550;40.588;49.684;2022-11-15T03:36:21;15.90;;;5.43;;
60370;SDS011;48550;40.588;49.684;2022-11-15T03:38:48;18.15;;;4.90;;
60370;SDS011;48550;40.588;49.684;2022-11-15T03:41:24;11.07;;;6.00;;
60370;SDS011;48550;40.588;49.684;2022-11-15T03:49:55;10.07;;;4.32;;
60370;SDS011;48550;40.588;49.684;2022-11-15T03:52:30;10.55;;;4.75;;
60370;SDS011;48550;40.588;49.684;2022-11-15T03:54:58;13.88;;;5.00;;
60370;SDS011;48550;40.588;49.684;2022-11-15T03:57:26;9.88;;;4.28;;
60370;SDS011;48550;40.588;49.684;2022-11-15T03:59:51;8.90;;;4.63;;
60370;SDS011;48550;40.588;49.684;2022-11-15T04:02:17;8.77;;;4.88;;
60370;SDS011;48550;40.588;49.684;2022-11-15T04:04:43;17.10;;;5.70;;
60370;SDS011;48550;40.588;49.684;2022-11-15T04:07:08;8.57;;;4.75;;
60370;SDS011;48550;40.588;49.684;2022-11-15T04:09:34;11.65;;;5.00;;
60370;SDS011;48550;40.588;49.684;2022-11-15T04:12:20;11.20;;;5.18;;
60370;SDS011;48550;40.588;49.684;2022-11-15T04:15:05;10.70;;;4.50;;
60370;SDS011;48550;40.588;49.684;2022-11-15T04:17:43;8.35;;;4.15;;
60370;SDS011;48550;40.588;49.684;2022-11-15T04:20:11;16.88;;;4.75;;
60370;SDS011;48550;40.588;49.684;2022-11-15T04:23:18;9.65;;;3.95;;
60370;SDS011;48550;40.588;49.684;2022-11-15T04:26:05;11.88;;;4.50;;
60370;SDS011;48550;40.588;49.684;2022-11-15T04:28:42;7.95;;;3.47;;
60370;SDS011;48550;40.588;49.684;2022-11-15T04:31:31;9.35;;;3.90;;
60370;SDS011;48550;40.588;49.684;2022-11-15T04:33:57;8.35;;;4.13;;
60370;SDS011;48550;40.588;49.684;2022-11-15T04:36:23;10.88;;;4.22;;
60370;SDS011;48550;40.588;49.684;2022-11-15T04:39:07;12.70;;;4.80;;
60370;SDS011;48550;40.588;49.684;2022-11-15T04:41:33;9.20;;;4.90;;
60370;SDS011;48550;40.588;49.684;2022-11-15T04:43:59;72.15;;;34.25;;
60370;SDS011;48550;40.588;49.684;2022-11-15T04:46:25;43.53;;;21.27;;
60370;SDS011;48550;40.588;49.684;2022-11-15T04:48:51;22.95;;;11.77;;
60370;SDS011;48550;40.588;49.684;2022-11-15T04:51:17;9.60;;;5.30;;
60370;SDS011;48550;40.588;49.684;2022-11-15T04:53:42;19.48;;;7.13;;
60370;SDS011;48550;40.588;49.684;2022-11-15T04:56:08;25.48;;;7.80;;
60370;SDS011;48550;40.588;49.684;2022-11-15T04:58:34;10.57;;;4.80;;
60370;SDS011;48550;40.588;49.684;2022-11-15T05:01:10;10.93;;;4.72;;
60370;SDS011;48550;40.588;49.684;2022-11-15T05:03:37;18.33;;;10.15;;
60370;SDS011;48550;40.588;49.684;2022-11-15T05:06:21;23.48;;;12.77;;
60370;SDS011;48550;40.588;49.684;2022-11-15T05:08:47;44.75;;;25.15;;
60370;SDS011;48550;40.588;49.684;2022-11-15T05:11:13;31.15;;;16.77;;
60370;SDS011;48550;40.588;49.684;2022-11-15T05:13:38;16.70;;;6.63;;
60370;SDS011;48550;40.588;49.684;2022-11-15T05:16:04;18.08;;;11.13;;
60370;SDS011;48550;40.588;49.684;2022-11-15T05:18:30;12.45;;;5.10;;
60370;SDS011;48550;40.588;49.684;2022-11-15T05:20:56;9.57;;;5.10;;
60370;SDS011;48550;40.588;49.684;2022-11-15T05:23:27;9.50;;;4.30;;
60370;SDS011;48550;40.588;49.684;2022-11-15T05:25:53;8.32;;;4.50;;
60370;SDS011;48550;40.588;49.684;2022-11-15T05:28:23;10.02;;;4.97;;
60370;SDS011;48550;40.588;49.684;2022-11-15T05:30:49;12.40;;;5.60;;
60370;SDS011;48550;40.588;49.684;2022-11-15T05:33:14;8.07;;;4.13;;
60370;SDS011;48550;40.588;49.684;2022-11-15T05:35:41;12.05;;;4.65;;
60370;SDS011;48550;40.588;49.684;2022-11-15T05:38:11;8.32;;;5.03;;
60370;SDS011;48550;40.588;49.684;2022-11-15T06:35:33;13.88;;;5.13;;
60370;SDS011;48550;40.588;49.684;2022-11-15T06:38:04;10.57;;;5.32;;
60370;SDS011;48550;40.588;49.684;2022-11-15T06:40:35;10.45;;;5.10;;
60370;SDS011;48550;40.588;49.684;2022-11-15T06:43:02;10.20;;;5.45;;
60370;SDS011;48550;40.588;49.684;2022-11-15T06:45:29;10.90;;;5.85;;
60370;SDS011;48550;40.588;49.684;2022-11-15T06:47:55;8.25;;;4.18;;
60370;SDS011;48550;40.588;49.684;2022-11-15T06:50:20;9.10;;;4.15;;
60370;SDS011;48550;40.588;49.684;2022-11-15T06:52:46;15.52;;;5.13;;
60370;SDS011;48550;40.588;49.684;2022-11-15T06:55:12;16.08;;;5.22;;
60370;SDS011;48550;40.588;49.684;2022-11-15T06:57:45;11.32;;;5.18;;
60370;SDS011;48550;40.588;49.684;2022-11-15T07:00:16;16.73;;;4.95;;
60370;SDS011;48550;40.588;49.684;2022-11-15T07:02:43;8.20;;;4.93;;
60370;SDS011;48550;40.588;49.684;2022-11-15T07:05:09;16.15;;;5.63;;
60370;SDS011;48550;40.588;49.684;2022-11-15T07:07:36;12.93;;;5.82;;
60370;SDS011;48550;40.588;49.684;2022-11-15T07:10:01;8.65;;;5.15;;
60370;SDS011;48550;40.588;49.684;2022-11-15T07:12:27;9.30;;;5.25;;
60370;SDS011;48550;40.588;49.684;2022-11-15T07:14:53;12.35;;;5.80;;
60370;SDS011;48550;40.588;49.684;2022-11-15T07:17:19;14.30;;;4.78;;
60370;SDS011;48550;40.588;49.684;2022-11-15T07:19:44;10.15;;;5.55;;
60370;SDS011;48550;40.588;49.684;2022-11-15T07:22:10;9.90;;;5.68;;
60370;SDS011;48550;40.588;49.684;2022-11-15T07:24:36;10.35;;;4.88;;
60370;SDS011;48550;40.588;49.684;2022-11-15T07:27:01;13.02;;;5.15;;
60370;SDS011;48550;40.588;49.684;2022-11-15T07:29:27;8.05;;;4.82;;
60370;SDS011;48550;40.588;49.684;2022-11-15T07:31:53;7.72;;;4.55;;
60370;SDS011;48550;40.588;49.684;2022-11-15T07:34:19;10.25;;;4.38;;
60370;SDS011;48550;40.588;49.684;2022-11-15T07:36:44;9.75;;;3.88;;
60370;SDS011;48550;40.588;49.684;2022-11-15T07:39:10;10.57;;;4.47;;
60370;SDS011;48550;40.588;49.684;2022-11-15T07:41:37;14.70;;;4.93;;
60370;SDS011;48550;40.588;49.684;2022-11-15T07:44:04;8.80;;;4.20;;
60370;SDS011;48550;40.588;49.684;2022-11-15T07:46:30;9.95;;;5.55;;
60370;SDS011;48550;40.588;49.684;2022-11-15T07:48:56;9.23;;;5.15;;
60370;SDS011;48550;40.588;49.684;2022-11-15T07:51:22;7.82;;;3.55;;
60370;SDS011;48550;40.588;49.684;2022-11-15T07:53:49;8.40;;;3.47;;
60370;SDS011;48550;40.588;49.684;2022-11-15T07:56:15;7.38;;;4.00;;
60370;SDS011;48550;40.588;49.684;2022-11-15T07:58:41;12.02;;;5.72;;
60370;SDS011;48550;40.588;49.684;2022-11-15T08:01:08;13.32;;;5.32;;
60370;SDS011;48550;40.588;49.684;2022-11-15T08:03:35;11.02;;;5.40;;
60370;SDS011;48550;40.588;49.684;2022-11-15T08:06:01;22.52;;;5.63;;
60370;SDS011;48550;40.588;49.684;2022-11-15T08:08:27;10.60;;;5.20;;
60370;SDS011;48550;40.588;49.684;2022-11-15T08:10:53;11.70;;;5.05;;
60370;SDS011;48550;40.588;49.684;2022-11-15T08:13:19;17.92;;;6.20;;
60370;SDS011;48550;40.588;49.684;2022-11-15T08:15:46;12.60;;;5.72;;
60370;SDS011;48550;40.588;49.684;2022-11-15T08:18:15;11.15;;;6.10;;
60370;SDS011;48550;40.588;49.684;2022-11-15T08:20:41;10.60;;;5.88;;
60370;SDS011;48550;40.588;49.684;2022-11-15T08:23:09;14.35;;;6.40;;
60370;SDS011;48550;40.588;49.684;2022-11-15T08:25:36;14.20;;;8.75;;
60370;SDS011;48550;40.588;49.684;2022-11-15T08:28:03;11.70;;;6.65;;
60370;SDS011;48550;40.588;49.684;2022-11-15T08:30:33;15.60;;;7.63;;
60370;SDS011;48550;40.588;49.684;2022-11-15T08:33:01;14.48;;;6.97;;
60370;SDS011;48550;40.588;49.684;2022-11-15T08:35:27;18.35;;;7.43;;
60370;SDS011;48550;40.588;49.684;2022-11-15T08:37:54;9.52;;;5.05;;
60370;SDS011;48550;40.588;49.684;2022-11-15T08:40:20;8.52;;;4.20;;
60370;SDS011;48550;40.588;49.684;2022-11-15T08:42:46;13.50;;;4.20;;
60370;SDS011;48550;40.588;49.684;2022-11-15T08:45:12;7.47;;;3.90;;
60370;SDS011;48550;40.588;49.684;2022-11-15T08:47:38;10.18;;;4.22;;
60370;SDS011;48550;40.588;49.684;2022-11-15T08:50:04;12.43;;;4.82;;
60370;SDS011;48550;40.588;49.684;2022-11-15T08:52:30;7.60;;;4.15;;
60370;SDS011;48550;40.588;49.684;2022-11-15T08:54:57;11.38;;;6.03;;
60370;SDS011;48550;40.588;49.684;2022-11-15T08:57:22;9.02;;;4.93;;
60370;SDS011;48550;40.588;49.684;2022-11-15T08:59:48;10.95;;;4.72;;
60370;SDS011;48550;40.588;49.684;2022-11-15T09:02:14;7.70;;;4.60;;
60370;SDS011;48550;40.588;49.684;2022-11-15T09:04:41;18.92;;;6.85;;
60370;SDS011;48550;40.588;49.684;2022-11-15T09:07:08;10.15;;;5.45;;
60370;SDS011;48550;40.588;49.684;2022-11-15T09:09:34;15.45;;;6.80;;
60370;SDS011;48550;40.588;49.684;2022-11-15T09:12:00;9.48;;;5.10;;
60370;SDS011;48550;40.588;49.684;2022-11-15T09:14:25;7.90;;;4.57;;
60370;SDS011;48550;40.588;49.684;2022-11-15T09:16:51;11.43;;;4.90;;
60370;SDS011;48550;40.588;49.684;2022-11-15T09:19:17;9.48;;;4.40;;
60370;SDS011;48550;40.588;49.684;2022-11-15T09:21:43;13.10;;;5.13;;
60370;SDS011;48550;40.588;49.684;2022-11-15T09:24:08;9.48;;;4.70;;
60370;SDS011;48550;40.588;49.684;2022-11-15T09:26:34;10.05;;;5.40;;
60370;SDS011;48550;40.588;49.684;2022-11-15T09:29:00;11.48;;;5.35;;
60370;SDS011;48550;40.588;49.684;2022-11-15T09:31:26;12.02;;;5.47;;
60370;SDS011;48550;40.588;49.684;2022-11-15T09:33:52;13.10;;;5.50;;
60370;SDS011;48550;40.588;49.684;2022-11-15T09:36:18;11.80;;;5.90;;
60370;SDS011;48550;40.588;49.684;2022-11-15T09:38:43;11.75;;;5.40;;
60370;SDS011;48550;40.588;49.684;2022-11-15T09:43:46;8.00;;;5.03;;
60370;SDS011;48550;40.588;49.684;2022-11-15T09:49:03;11.10;;;5.60;;
60370;SDS011;48550;40.588;49.684;2022-11-15T09:51:39;15.18;;;6.68;;
60370;SDS011;48550;40.588;49.684;2022-11-15T09:56:40;8.35;;;5.18;;
60370;SDS011;48550;40.588;49.684;2022-11-15T10:01:41;11.73;;;5.35;;
60370;SDS011;48550;40.588;49.684;2022-11-15T10:04:10;11.25;;;5.53;;
60370;SDS011;48550;40.588;49.684;2022-11-15T10:06:37;10.27;;;5.43;;
60370;SDS011;48550;40.588;49.684;2022-11-15T10:09:09;12.30;;;5.88;;
60370;SDS011;48550;40.588;49.684;2022-11-15T10:11:37;10.80;;;6.65;;
60370;SDS011;48550;40.588;49.684;2022-11-15T10:14:14;10.20;;;5.32;;
60370;SDS011;48550;40.588;49.684;2022-11-15T10:16:55;11.07;;;6.03;;
60370;SDS011;48550;40.588;49.684;2022-11-15T10:25:18;14.13;;;6.60;;
60370;SDS011;48550;40.588;49.684;2022-11-15T10:28:32;11.60;;;6.47;;
60370;SDS011;48550;40.588;49.684;2022-11-15T10:30:43;12.15;;;7.38;;
60370;SDS011;48550;40.588;49.684;2022-11-15T10:35:46;10.00;;;6.63;;
60370;SDS011;48550;40.588;49.684;2022-11-15T10:38:12;11.45;;;5.57;;
60370;SDS011;48550;40.588;49.684;2022-11-15T10:40:39;17.30;;;10.18;;
60370;SDS011;48550;40.588;49.684;2022-11-15T10:45:34;8.88;;;5.40;;
60370;SDS011;48550;40.588;49.684;2022-11-15T10:50:39;9.60;;;5.45;;
60370;SDS011;48550;40.588;49.684;2022-11-15T10:53:20;10.95;;;6.18;;
60370;SDS011;48550;40.588;49.684;2022-11-15T10:55:47;10.05;;;4.60;;
60370;SDS011;48550;40.588;49.684;2022-11-15T10:58:31;9.98;;;5.55;;
60370;SDS011;48550;40.588;49.684;2022-11-15T11:01:19;18.58;;;7.47;;
60370;SDS011;48550;40.588;49.684;2022-11-15T11:03:45;9.48;;;5.95;;
60370;SDS011;48550;40.588;49.684;2022-11-15T11:06:31;10.57;;;5.90;;
60370;SDS011;48550;40.588;49.684;2022-11-15T11:09:22;11.27;;;5.30;;
60370;SDS011;48550;40.588;49.684;2022-11-15T11:11:58;11.75;;;6.25;;
60370;SDS011;48550;40.588;49.684;2022-11-15T11:25:42;10.38;;;6.47;;
60370;SDS011;48550;40.588;49.684;2022-11-15T11:28:33;11.77;;;5.75;;
60370;SDS011;48550;40.588;49.684;2022-11-15T11:36:41;12.48;;;6.65;;
60370;SDS011;48550;40.588;49.684;2022-11-15T11:50:33;10.65;;;6.65;;
60370;SDS011;48550;40.588;49.684;2022-11-15T11:53:12;12.73;;;6.68;;
60370;SDS011;48550;40.588;49.684;2022-11-15T11:55:52;9.68;;;5.35;;
60370;SDS011;48550;40.588;49.684;2022-11-15T11:58:27;12.00;;;6.38;;
60370;SDS011;48550;40.588;49.684;2022-11-15T12:00:57;6.72;;;4.35;;
60370;SDS011;48550;40.588;49.684;2022-11-15T12:03:57;8.13;;;4.82;;
60370;SDS011;48550;40.588;49.684;2022-11-15T12:15:18;24.02;;;12.45;;
60370;SDS011;48550;40.588;49.684;2022-11-15T12:17:50;14.85;;;8.30;;
60370;SDS011;48550;40.588;49.684;2022-11-15T12:20:20;20.95;;;10.82;;
60370;SDS011;48550;40.588;49.684;2022-11-15T12:26:06;21.15;;;10.32;;
60370;SDS011;48550;40.588;49.684;2022-11-15T12:34:48;22.50;;;14.50;;
60370;SDS011;48550;40.588;49.684;2022-11-15T12:36:53;25.63;;;13.68;;
60370;SDS011;48550;40.588;49.684;2022-11-15T12:39:19;26.73;;;14.57;;
60370;SDS011;48550;40.588;49.684;2022-11-15T12:47:23;43.47;;;20.67;;
60370;SDS011;48550;40.588;49.684;2022-11-15T12:49:50;33.35;;;18.75;;
60370;SDS011;48550;40.588;49.684;2022-11-15T12:52:17;35.75;;;18.75;;
60370;SDS011;48550;40.588;49.684;2022-11-15T12:59:54;16.20;;;9.03;;
60370;SDS011;48550;40.588;49.684;2022-11-15T13:04:53;10.52;;;3.72;;
60370;SDS011;48550;40.588;49.684;2022-11-15T13:13:01;4.45;;;2.90;;
60370;SDS011;48550;40.588;49.684;2022-11-15T13:15:36;10.38;;;3.67;;
60370;SDS011;48550;40.588;49.684;2022-11-15T13:21:22;5.38;;;3.35;;
60370;SDS011;48550;40.588;49.684;2022-11-15T13:24:12;10.32;;;4.65;;
60370;SDS011;48550;40.588;49.684;2022-11-15T13:26:40;7.90;;;4.13;;
60370;SDS011;48550;40.588;49.684;2022-11-15T13:29:16;6.65;;;3.90;;
60370;SDS011;48550;40.588;49.684;2022-11-15T13:31:43;6.07;;;3.70;;
60370;SDS011;48550;40.588;49.684;2022-11-15T13:37:01;5.70;;;2.92;;
60370;SDS011;48550;40.588;49.684;2022-11-15T13:39:31;3.78;;;2.45;;
60370;SDS011;48550;40.588;49.684;2022-11-15T13:41:59;5.00;;;3.20;;
60370;SDS011;48550;40.588;49.684;2022-11-15T13:44:26;4.43;;;2.97;;
60370;SDS011;48550;40.588;49.684;2022-11-15T13:47:04;6.85;;;3.40;;
60370;SDS011;48550;40.588;49.684;2022-11-15T13:49:30;7.78;;;3.33;;
60370;SDS011;48550;40.588;49.684;2022-11-15T13:51:57;7.72;;;3.30;;
60370;SDS011;48550;40.588;49.684;2022-11-15T13:54:30;5.22;;;3.22;;
60370;SDS011;48550;40.588;49.684;2022-11-15T14:00:00;6.90;;;2.80;;
60370;SDS011;48550;40.588;49.684;2022-11-15T14:07:52;8.45;;;3.00;;
60370;SDS011;48550;40.588;49.684;2022-11-15T14:10:38;5.90;;;2.75;;
60370;SDS011;48550;40.588;49.684;2022-11-15T14:13:09;5.10;;;2.65;;
60370;SDS011;48550;40.588;49.684;2022-11-15T14:15:51;7.28;;;3.42;;
60370;SDS011;48550;40.588;49.684;2022-11-15T14:21:07;5.82;;;3.28;;
60370;SDS011;48550;40.588;49.684;2022-11-15T14:23:33;5.78;;;3.13;;
60370;SDS011;48550;40.588;49.684;2022-11-15T14:25:59;6.18;;;4.07;;
60370;SDS011;48550;40.588;49.684;2022-11-15T14:30:55;7.53;;;3.35;;
60370;SDS011;48550;40.588;49.684;2022-11-15T14:36:02;24.25;;;6.50;;
60370;SDS011;48550;40.588;49.684;2022-11-15T14:38:30;9.27;;;3.90;;
60370;SDS011;48550;40.588;49.684;2022-11-15T14:40:56;7.78;;;3.85;;
60370;SDS011;48550;40.588;49.684;2022-11-15T14:43:22;4.88;;;2.80;;
60370;SDS011;48550;40.588;49.684;2022-11-15T14:45:48;7.97;;;3.92;;
60370;SDS011;48550;40.588;49.684;2022-11-15T14:48:14;7.80;;;3.55;;
60370;SDS011;48550;40.588;49.684;2022-11-15T14:50:39;7.15;;;3.33;;
60370;SDS011;48550;40.588;49.684;2022-11-15T14:53:05;7.60;;;4.50;;
60370;SDS011;48550;40.588;49.684;2022-11-15T14:55:32;9.10;;;4.90;;
60370;SDS011;48550;40.588;49.684;2022-11-15T14:58:04;12.00;;;4.75;;
60370;SDS011;48550;40.588;49.684;2022-11-15T15:00:33;8.07;;;4.90;;
60370;SDS011;48550;40.588;49.684;2022-11-15T15:03:00;10.88;;;5.20;;
60370;SDS011;48550;40.588;49.684;2022-11-15T15:05:33;14.40;;;5.70;;
60370;SDS011;48550;40.588;49.684;2022-11-15T15:07:59;12.15;;;6.07;;
60370;SDS011;48550;40.588;49.684;2022-11-15T15:10:26;8.25;;;4.85;;
60370;SDS011;48550;40.588;49.684;2022-11-15T15:12:56;8.98;;;5.20;;
60370;SDS011;48550;40.588;49.684;2022-11-15T15:15:24;13.85;;;6.43;;
60370;SDS011;48550;40.588;49.684;2022-11-15T15:17:51;9.68;;;5.95;;
60370;SDS011;48550;40.588;49.684;2022-11-15T15:20:17;10.15;;;4.78;;
60370;SDS011;48550;40.588;49.684;2022-11-15T15:22:43;11.32;;;4.57;;
60370;SDS011;48550;40.588;49.684;2022-11-15T15:25:27;8.13;;;4.25;;
60370;SDS011;48550;40.588;49.684;2022-11-15T15:27:58;11.75;;;5.00;;
60370;SDS011;48550;40.588;49.684;2022-11-15T15:30:24;8.75;;;4.53;;
60370;SDS011;48550;40.588;49.684;2022-11-15T15:32:50;6.00;;;3.75;;
60370;SDS011;48550;40.588;49.684;2022-11-15T15:35:17;11.00;;;5.13;;
60370;SDS011;48550;40.588;49.684;2022-11-15T15:37:44;11.70;;;5.90;;
60370;SDS011;48550;40.588;49.684;2022-11-15T15:40:21;13.15;;;7.05;;
60370;SDS011;48550;40.588;49.684;2022-11-15T15:42:50;13.57;;;5.68;;
60370;SDS011;48550;40.588;49.684;2022-11-15T15:45:17;10.68;;;6.07;;
60370;SDS011;48550;40.588;49.684;2022-11-15T15:47:43;9.45;;;5.30;;
60370;SDS011;48550;40.588;49.684;2022-11-15T15:50:55;12.75;;;6.45;;
60370;SDS011;48550;40.588;49.684;2022-11-15T15:53:00;9.50;;;4.35;;
60370;SDS011;48550;40.588;49.684;2022-11-15T15:55:27;9.15;;;5.00;;
60370;SDS011;48550;40.588;49.684;2022-11-15T15:57:53;9.55;;;4.47;;
60370;SDS011;48550;40.588;49.684;2022-11-15T16:00:19;10.13;;;4.72;;
60370;SDS011;48550;40.588;49.684;2022-11-15T16:02:48;9.10;;;4.50;;
60370;SDS011;48550;40.588;49.684;2022-11-15T16:05:13;12.75;;;4.88;;
60370;SDS011;48550;40.588;49.684;2022-11-15T16:07:40;10.10;;;4.80;;
60370;SDS011;48550;40.588;49.684;2022-11-15T16:10:18;10.50;;;4.90;;
60370;SDS011;48550;40.588;49.684;2022-11-15T16:12:48;9.93;;;4.90;;
60370;SDS011;48550;40.588;49.684;2022-11-15T16:15:14;8.82;;;4.93;;
60370;SDS011;48550;40.588;49.684;2022-11-15T16:17:41;9.90;;;5.63;;
60370;SDS011;48550;40.588;49.684;2022-11-15T16:23:07;17.77;;;6.03;;
60370;SDS011;48550;40.588;49.684;2022-11-15T16:25:37;12.32;;;5.35;;
60370;SDS011;48550;40.588;49.684;2022-11-15T16:28:23;9.77;;;5.80;;
60370;SDS011;48550;40.588;49.684;2022-11-15T16:31:01;9.30;;;5.55;;
60370;SDS011;48550;40.588;49.684;2022-11-15T16:33:33;15.10;;;5.32;;
60370;SDS011;48550;40.588;49.684;2022-11-15T16:35:58;17.65;;;6.82;;
60370;SDS011;48550;40.588;49.684;2022-11-15T16:38:24;15.65;;;7.25;;
60370;SDS011;48550;40.588;49.684;2022-11-15T16:40:50;16.15;;;8.55;;
60370;SDS011;48550;40.588;49.684;2022-11-15T16:43:17;16.10;;;7.22;;
60370;SDS011;48550;40.588;49.684;2022-11-15T16:45:43;14.15;;;6.50;;
60370;SDS011;48550;40.588;49.684;2022-11-15T16:48:26;11.88;;;6.13;;
60370;SDS011;48550;40.588;49.684;2022-11-15T16:50:57;11.57;;;6.68;;
60370;SDS011;48550;40.588;49.684;2022-11-15T16:53:24;12.40;;;5.60;;
60370;SDS011;48550;40.588;49.684;2022-11-15T16:55:50;21.88;;;7.70;;
60370;SDS011;48550;40.588;49.684;2022-11-15T16:58:19;27.80;;;7.93;;
60370;SDS011;48550;40.588;49.684;2022-11-15T17:00:49;18.80;;;6.72;;
60370;SDS011;48550;40.588;49.684;2022-11-15T17:03:19;11.73;;;5.60;;
60370;SDS011;48550;40.588;49.684;2022-11-15T17:05:46;13.75;;;5.90;;
60370;SDS011;48550;40.588;49.684;2022-11-15T17:08:11;15.55;;;6.65;;
60370;SDS011;48550;40.588;49.684;2022-11-15T17:10:38;17.10;;;7.00;;
60370;SDS011;48550;40.588;49.684;2022-11-15T17:13:10;10.63;;;6.57;;
60370;SDS011;48550;40.588;49.684;2022-11-15T17:15:37;12.32;;;7.00;;
60370;SDS011;48550;40.588;49.684;2022-11-15T17:18:03;13.70;;;7.03;;
60370;SDS011;48550;40.588;49.684;2022-11-15T17:20:29;12.57;;;6.72;;
60370;SDS011;48550;40.588;49.684;2022-11-15T17:22:55;11.85;;;7.40;;
60370;SDS011;48550;40.588;49.684;2022-11-15T17:25:21;13.80;;;8.52;;
60370;SDS011;48550;40.588;49.684;2022-11-15T17:27:47;17.38;;;8.30;;
60370;SDS011;48550;40.588;49.684;2022-11-15T17:30:13;11.30;;;7.30;;
60370;SDS011;48550;40.588;49.684;2022-11-15T17:32:40;13.55;;;8.30;;
60370;SDS011;48550;40.588;49.684;2022-11-15T17:35:07;12.82;;;7.85;;
60370;SDS011;48550;40.588;49.684;2022-11-15T17:37:34;12.88;;;6.82;;
60370;SDS011;48550;40.588;49.684;2022-11-15T17:40:01;12.10;;;6.50;;
60370;SDS011;48550;40.588;49.684;2022-11-15T17:42:29;12.48;;;5.65;;
60370;SDS011;48550;40.588;49.684;2022-11-15T17:44:56;8.80;;;5.90;;
60370;SDS011;48550;40.588;49.684;2022-11-15T17:47:22;11.25;;;6.40;;
60370;SDS011;48550;40.588;49.684;2022-11-15T17:49:48;9.40;;;5.63;;
60370;SDS011;48550;40.588;49.684;2022-11-15T17:52:14;11.63;;;6.00;;
60370;SDS011;48550;40.588;49.684;2022-11-15T17:54:40;11.43;;;7.35;;
60370;SDS011;48550;40.588;49.684;2022-11-15T17:57:06;17.90;;;9.40;;
60370;SDS011;48550;40.588;49.684;2022-11-15T17:59:32;12.13;;;7.65;;